.
WxDataArchive / Data Records for 2014-10-06
2014-10-05 October 2014 2014-10-07

Data Records for Monday, 06 October 2014

Time	Temp	Chill	HIndex	Humid	Dewpt	 Wind 	HiWind	WindDir	Rain 	Barom
-----	----	-----	------	-----	-----	------	------	-------	-----	-----
00:00	50.5	50.5	50.5	76	43.2	0	0	---	0.00	29.701 
00:05	50.4	50.4	50.4	77	43.5	0	0	---	0.00	29.701 
00:10	50.2	50.2	50.2	78	43.6	0	0	---	0.00	29.701 
00:15	50.1	50.1	50.1	79	43.8	0	0	---	0.00	29.690 
00:20	50.1	50.1	50.1	79	43.8	0	0	---	0.00	29.690 
00:25	49.9	49.9	49.9	79	43.6	0	2	270	0.00	29.690 
00:30	49.9	49.9	49.9	79	43.6	0	0	---	0.01	29.688 
00:35	49.8	49.8	49.8	79	43.6	0	1	270	0.00	29.688 
00:40	49.6	49.6	49.6	80	43.7	0	0	---	0.00	29.688 
00:45	49.5	49.5	49.5	80	43.6	0	0	---	0.00	29.683 
00:50	49.5	49.5	49.5	80	43.6	0	0	---	0.00	29.683 
00:55	49.4	49.4	49.4	79	43.2	0	0	---	0.00	29.683 
01:00	49.5	49.5	49.5	79	43.3	0	0	---	0.00	29.681 
01:05	49.5	49.5	49.5	79	43.3	0	0	---	0.00	29.681 
01:10	49.5	49.5	49.5	78	42.9	0	0	---	0.00	29.681 
01:15	49.5	49.5	49.5	78	42.9	0	0	---	0.00	29.681 
01:20	49.5	49.5	49.5	78	42.9	0	0	---	0.00	29.681 
01:25	49.5	49.5	49.5	78	42.9	0	0	---	0.00	29.681 
01:30	49.4	49.4	49.4	79	43.2	0	1	270	0.00	29.669 
01:35	49.4	49.4	49.4	79	43.2	0	1	270	0.00	29.669 
01:40	49.4	49.4	49.4	79	43.2	0	0	---	0.00	29.669 
01:45	49.4	49.4	49.4	78	42.8	0	0	---	0.00	29.655 
01:50	49.4	49.4	49.4	78	42.8	0	1	270	0.00	29.655 
01:55	49.4	49.4	49.4	79	43.2	0	0	---	0.00	29.655 
02:00	49.2	49.2	49.2	79	43.0	0	0	---	0.00	29.657 
02:05	48.9	48.9	48.9	79	42.7	0	0	---	0.00	29.657 
02:10	48.8	48.8	48.8	80	42.9	0	0	---	0.00	29.657 
02:15	48.5	48.5	48.5	80	42.6	0	0	---	0.00	29.654 
02:20	48.2	48.2	48.2	80	42.3	0	0	---	0.00	29.654 
02:25	47.9	47.9	47.9	81	42.4	0	0	---	0.00	29.654 
02:30	47.6	47.6	47.6	81	42.1	0	0	---	0.00	29.654 
02:35	47.3	47.3	47.3	82	42.1	0	0	---	0.00	29.654 
02:40	46.8	46.8	46.8	82	41.6	0	0	---	0.00	29.654 
02:45	46.5	46.5	46.5	83	41.6	0	0	---	0.00	29.655 
02:50	46.2	46.2	46.2	83	41.3	0	0	---	0.00	29.655 
02:55	46.0	46.0	46.0	84	41.4	0	0	---	0.00	29.655 
03:00	45.7	45.7	45.7	84	41.1	0	0	---	0.00	29.654 
03:05	45.4	45.4	45.4	85	41.2	0	0	---	0.00	29.654 
03:10	45.2	45.2	45.2	86	41.3	0	0	---	0.00	29.654 
03:15	45.1	45.1	45.1	86	41.2	0	0	---	0.00	29.654 
03:20	44.9	44.9	44.9	86	41.0	0	0	---	0.00	29.654 
03:25	44.8	44.8	44.8	87	41.2	0	0	---	0.00	29.654 
03:30	44.6	44.6	44.6	88	41.3	0	0	---	0.00	29.654 
03:35	44.8	44.8	44.8	88	41.5	0	0	---	0.00	29.654 
03:40	44.8	44.8	44.8	88	41.5	0	0	---	0.00	29.654 
03:45	44.9	44.9	44.9	88	41.6	0	0	---	0.00	29.644 
03:50	44.9	44.9	44.9	88	41.6	0	0	---	0.00	29.644 
03:55	45.1	45.1	45.1	88	41.8	0	1	270	0.00	29.644 
04:00	45.2	45.2	45.2	88	41.9	0	1	270	0.00	29.639 
04:05	45.4	45.4	45.4	88	42.1	0	0	---	0.00	29.639 
04:10	45.7	45.7	45.7	88	42.4	0	0	---	0.00	29.639 
04:15	45.8	45.8	45.8	88	42.5	0	0	---	0.00	29.650 
04:20	46.0	46.0	46.0	88	42.6	0	0	---	0.00	29.650 
04:25	46.1	46.1	46.1	87	42.4	0	1	270	0.00	29.650 
04:30	46.1	46.1	46.1	87	42.4	0	0	---	0.00	29.644 
04:35	46.2	46.2	46.2	86	42.2	0	0	---	0.00	29.644 
04:40	46.2	46.2	46.2	86	42.2	0	0	---	0.00	29.644 
04:45	46.1	46.1	46.1	86	42.1	0	0	---	0.00	29.644 
04:50	46.1	46.1	46.1	86	42.1	0	0	---	0.00	29.644 
04:55	46.0	46.0	46.0	85	41.7	0	0	---	0.00	29.644 
05:00	46.0	46.0	46.0	85	41.7	0	1	270	0.00	29.638 
05:05	46.0	46.0	46.0	85	41.7	0	0	---	0.00	29.638 
05:10	46.0	46.0	46.0	85	41.7	0	1	270	0.00	29.638 
05:15	45.8	45.8	45.8	85	41.6	0	1	270	0.00	29.641 
05:20	45.8	45.8	45.8	85	41.6	0	0	---	0.00	29.641 
05:25	45.8	45.8	45.8	85	41.6	0	0	---	0.00	29.641 
05:30	45.7	45.7	45.7	85	41.5	0	0	---	0.00	29.645 
05:35	45.5	45.5	45.5	85	41.3	0	0	---	0.00	29.645 
05:40	45.4	45.4	45.4	85	41.2	0	0	---	0.00	29.645 
05:45	45.4	45.4	45.4	86	41.5	0	0	---	0.00	29.647 
05:50	45.4	45.4	45.4	86	41.5	0	0	---	0.00	29.647 
05:55	45.4	45.4	45.4	86	41.5	0	0	---	0.00	29.647 
06:00	45.5	45.5	45.5	86	41.6	0	1	270	0.00	29.645 
06:05	45.5	45.5	45.5	86	41.6	0	0	---	0.00	29.645 
06:10	45.7	45.7	45.7	86	41.8	0	0	---	0.00	29.645 
06:15	45.8	45.8	45.8	86	41.9	0	0	---	0.00	29.642 
06:20	46.0	46.0	46.0	86	42.0	0	1	270	0.00	29.642 
06:25	46.0	46.0	46.0	85	41.7	0	1	270	0.00	29.642 
06:30	46.0	46.0	46.0	85	41.7	0	0	---	0.00	29.640 
06:35	46.0	46.0	46.0	85	41.7	0	0	---	0.00	29.640 
06:40	46.0	46.0	46.0	85	41.7	0	1	270	0.00	29.640 
06:45	46.0	46.0	46.0	85	41.7	0	0	---	0.00	29.641 
06:50	46.1	46.1	46.1	85	41.8	0	1	270	0.00	29.641 
06:55	46.2	46.2	46.2	84	41.6	0	1	270	0.00	29.641 
07:00	46.5	46.5	46.5	84	41.9	0	1	270	0.00	29.641 
07:05	46.7	46.7	46.7	84	42.1	0	1	270	0.00	29.641 
07:10	46.7	46.7	46.7	84	42.1	0	0	---	0.00	29.641 
07:15	46.8	46.8	46.8	84	42.2	0	1	270	0.00	29.639 
07:20	47.0	47.0	47.0	84	42.4	0	2	270	0.00	29.639 
07:25	47.0	47.0	47.0	83	42.1	0	1	270	0.00	29.639 
07:30	47.1	47.1	47.1	83	42.2	0	2	292	0.00	29.641 
07:35	47.3	47.3	47.3	83	42.4	0	1	292	0.00	29.641 
07:40	47.3	47.3	47.3	83	42.4	0	0	---	0.00	29.641 
07:45	47.3	47.3	47.3	83	42.4	0	1	292	0.00	29.647 
07:50	47.4	47.4	47.4	84	42.8	0	1	292	0.00	29.647 
07:55	47.4	47.4	47.4	84	42.8	0	1	292	0.00	29.647 
08:00	47.4	47.4	47.4	84	42.8	0	1	292	0.00	29.651 
08:05	47.6	47.6	47.6	84	43.0	0	1	292	0.00	29.651 
08:10	47.7	47.7	47.7	84	43.1	0	1	292	0.00	29.651 
08:15	47.7	47.7	47.7	84	43.1	0	1	292	0.00	29.646 
08:20	47.7	47.7	47.7	84	43.1	0	1	292	0.00	29.646 
08:25	47.9	47.9	47.9	84	43.3	0	1	292	0.00	29.646 
08:30	48.0	48.0	48.0	84	43.4	0	0	---	0.00	29.651 
08:35	48.2	48.2	48.2	84	43.6	0	0	---	0.00	29.651 
08:40	48.2	48.2	48.2	84	43.6	0	1	292	0.00	29.651 
08:45	48.3	48.3	48.3	84	43.7	0	0	---	0.00	29.655 
08:50	48.5	48.5	48.5	84	43.9	0	0	---	0.00	29.655 
08:55	48.8	48.8	48.8	84	44.2	0	1	292	0.00	29.655 
09:00	48.9	48.9	48.9	84	44.3	0	1	292	0.00	29.660 
09:05	49.4	49.4	49.4	83	44.5	0	2	292	0.00	29.660 
09:10	49.8	49.8	49.8	82	44.5	0	1	292	0.00	29.660 
09:15	50.1	50.1	50.1	81	44.5	0	2	292	0.00	29.664 
09:20	50.5	50.5	50.5	80	44.6	0	2	292	0.00	29.664 
09:25	50.7	50.7	50.7	79	44.4	0	2	292	0.00	29.664 
09:30	51.0	51.0	51.0	78	44.4	0	1	248	0.00	29.661 
09:35	51.1	51.1	51.1	78	44.5	0	1	248	0.00	29.661 
09:40	51.4	51.4	51.4	78	44.8	0	1	248	0.00	29.661 
09:45	51.4	51.4	51.4	77	44.4	0	2	248	0.00	29.670 
09:50	51.6	51.6	51.6	77	44.6	0	1	248	0.00	29.670 
09:55	51.7	51.7	51.7	78	45.1	0	2	248	0.00	29.670 
10:00	51.9	51.9	51.9	77	44.9	0	1	248	0.00	29.671 
10:05	52.0	52.0	52.0	77	45.0	0	1	248	0.00	29.671 
10:10	52.2	52.2	52.2	77	45.2	0	1	248	0.00	29.671 
10:15	52.3	52.3	52.3	77	45.3	0	3	270	0.00	29.671 
10:20	52.5	52.5	52.5	77	45.5	0	3	270	0.00	29.671 
10:25	52.5	52.5	52.5	76	45.2	0	2	270	0.00	29.671 
10:30	52.5	52.5	52.5	77	45.5	0	2	270	0.00	29.670 
10:35	52.6	52.6	52.6	78	45.9	0	1	270	0.00	29.670 
10:40	52.5	52.5	52.5	77	45.5	0	2	270	0.00	29.670 
10:45	52.6	52.6	52.6	78	45.9	0	1	270	0.00	29.670 
10:50	52.6	52.6	52.6	78	45.9	0	4	315	0.00	29.670 
10:55	52.8	52.8	52.8	78	46.1	0	2	315	0.00	29.670 
11:00	52.8	52.8	52.8	79	46.5	0	3	248	0.00	29.669 
11:05	52.8	52.8	52.8	79	46.5	0	2	248	0.00	29.669 
11:10	52.6	52.6	52.6	80	46.6	0	1	248	0.00	29.669 
11:15	52.6	52.6	52.6	80	46.6	0	1	248	0.00	29.668 
11:20	52.6	52.6	52.6	80	46.6	0	1	248	0.00	29.668 
11:25	52.8	52.8	52.8	81	47.1	0	1	248	0.00	29.668 
11:30	52.8	52.8	52.8	81	47.1	0	1	248	0.00	29.656 
11:35	52.8	52.8	52.8	82	47.5	0	1	248	0.00	29.656 
11:40	52.8	52.8	52.8	82	47.5	0	1	248	0.00	29.656 
11:45	52.9	52.9	52.9	82	47.6	0	4	248	0.00	29.655 
11:50	53.1	53.1	53.1	81	47.4	0	1	248	0.00	29.655 
11:55	53.2	53.2	53.2	81	47.5	0	1	248	0.00	29.655 
12:00	53.5	53.5	53.5	80	47.5	0	2	270	0.00	29.654 
12:05	53.8	53.8	53.8	80	47.8	0	2	270	0.00	29.654 
12:10	54.1	54.1	54.1	79	47.7	0	2	270	0.00	29.654 
12:15	54.4	54.4	54.4	79	48.0	0	1	270	0.00	29.654 
12:20	54.5	54.5	54.5	79	48.1	0	3	270	0.00	29.654 
12:25	54.7	54.7	54.7	79	48.3	0	1	112	0.00	29.654 
12:30	54.7	54.7	54.7	79	48.3	0	3	112	0.00	29.653 
12:35	54.7	54.7	54.7	80	48.7	0	2	112	0.00	29.653 
12:40	54.5	54.5	54.5	80	48.5	0	2	112	0.00	29.653 
12:45	54.5	54.5	54.5	82	49.1	0	1	112	0.00	29.652 
12:50	54.2	54.2	54.2	83	49.1	0	3	112	0.00	29.652 
12:55	53.8	53.8	53.8	84	49.1	0	2	315	0.01	29.652 
13:00	53.5	53.5	53.5	85	49.1	0	4	338	0.01	29.643 
13:05	53.2	53.2	53.2	87	49.4	1	3	90	0.02	29.643 
13:10	52.9	52.9	52.9	88	49.4	0	1	90	0.01	29.643 
13:15	52.6	52.6	52.6	89	49.4	0	1	90	0.02	29.637 
13:20	52.5	52.5	52.5	89	49.4	0	2	90	0.01	29.637 
13:25	52.3	52.3	52.3	90	49.5	0	1	90	0.01	29.637 
13:30	52.2	52.2	52.2	90	49.4	0	1	90	0.01	29.628 
13:35	52.3	52.3	52.3	91	49.8	0	1	90	0.00	29.628 
13:40	52.3	52.3	52.3	91	49.8	0	1	90	0.01	29.628 
13:45	52.2	52.2	52.2	91	49.7	0	1	90	0.01	29.626 
13:50	52.2	52.2	52.2	92	49.9	0	2	90	0.01	29.626 
13:55	52.2	52.2	52.2	92	49.9	0	2	90	0.01	29.626 
14:00	52.2	52.2	52.2	92	49.9	0	1	90	0.00	29.612 
14:05	52.2	52.2	52.2	92	49.9	0	0	---	0.01	29.612 
14:10	52.2	52.2	52.2	92	49.9	0	1	90	0.01	29.612 
14:15	52.2	52.2	52.2	92	49.9	1	4	90	0.02	29.616 
14:20	52.2	52.2	52.2	92	49.9	1	4	112	0.01	29.616 
14:25	52.2	52.2	52.2	93	50.2	1	3	112	0.00	29.616 
14:30	52.5	52.5	52.5	93	50.5	0	3	90	0.00	29.612 
14:35	52.8	52.8	52.8	93	50.8	0	2	90	0.00	29.612 
14:40	53.1	53.1	53.1	93	51.1	1	3	90	0.00	29.612 
14:45	53.6	53.6	53.6	94	51.9	1	4	90	0.00	29.602 
14:50	54.1	54.1	54.1	94	52.4	1	4	90	0.00	29.602 
14:55	54.5	54.5	54.5	94	52.8	1	6	90	0.00	29.602 
15:00	55.1	55.1	55.1	93	53.1	1	6	90	0.00	29.607 
15:05	54.8	54.8	54.8	92	52.5	1	6	90	0.00	29.607 
15:10	54.8	54.8	54.8	92	52.5	0	3	68	0.00	29.607 
15:15	55.0	55.0	55.0	92	52.7	0	3	68	0.00	29.608 
15:20	55.0	55.0	55.0	91	52.4	0	3	68	0.00	29.608 
15:25	54.8	54.8	54.8	90	51.9	1	4	292	0.00	29.608 
15:30	55.0	55.0	55.0	90	52.1	0	2	292	0.00	29.607 
15:35	55.0	55.0	55.0	90	52.1	0	2	315	0.00	29.607 
15:40	55.4	55.4	55.4	89	52.2	1	3	22	0.00	29.607 
15:45	55.7	55.7	55.7	89	52.5	1	3	270	0.00	29.600 
15:50	56.2	56.2	56.2	89	53.0	0	2	202	0.00	29.600 
15:55	56.6	56.6	56.6	88	53.1	0	3	0	0.00	29.600 
16:00	57.0	57.0	57.0	87	53.2	0	2	45	0.00	29.591 
16:05	57.3	57.3	57.3	85	52.8	1	3	248	0.00	29.591 
16:10	57.6	57.6	57.6	85	53.1	0	1	248	0.00	29.591 
16:15	57.6	57.6	57.6	84	52.8	0	2	248	0.00	29.586 
16:20	57.8	57.8	57.8	84	53.0	0	3	248	0.00	29.586 
16:25	57.6	57.6	57.6	83	52.5	0	3	248	0.00	29.586 
16:30	57.5	57.5	57.5	83	52.4	0	2	0	0.00	29.601 
16:35	57.2	57.2	57.2	83	52.1	0	2	0	0.00	29.601 
16:40	56.9	56.9	56.9	84	52.1	0	1	0	0.00	29.601 
16:45	56.7	56.7	56.7	84	51.9	0	2	338	0.00	29.607 
16:50	56.6	56.6	56.6	85	52.1	0	2	338	0.01	29.607 
16:55	56.2	56.2	56.2	85	51.7	0	2	292	0.01	29.607 
17:00	56.0	56.0	56.0	85	51.6	0	1	292	0.00	29.591 
17:05	56.2	56.2	56.2	85	51.7	0	3	315	0.00	29.591 
17:10	56.5	56.5	56.5	85	52.0	0	1	315	0.00	29.591 
17:15	56.6	56.6	56.6	84	51.8	0	1	315	0.00	29.591 
17:20	56.9	56.9	56.9	82	51.5	0	2	315	0.00	29.591 
17:25	56.9	56.9	56.9	79	50.5	0	1	292	0.00	29.591 
17:30	57.2	57.2	57.2	78	50.4	0	2	292	0.00	29.591 
17:35	57.3	57.3	57.3	77	50.1	0	2	292	0.00	29.591 
17:40	57.3	57.3	57.3	78	50.5	0	1	292	0.00	29.591 
17:45	57.6	57.6	57.6	77	50.4	0	3	292	0.00	29.594 
17:50	57.8	57.8	57.8	75	49.9	0	1	292	0.00	29.594 
17:55	57.8	57.8	57.8	75	49.9	0	1	90	0.00	29.594 
18:00	57.6	57.6	57.6	74	49.4	0	1	90	0.00	29.591 
18:05	57.5	57.5	57.5	76	50.0	0	2	90	0.00	29.591 
18:10	57.3	57.3	57.3	76	49.8	0	1	90	0.00	29.591 
18:15	57.3	57.3	57.3	75	49.4	0	1	90	0.00	29.592 
18:20	57.3	57.3	57.3	75	49.4	0	2	90	0.00	29.592 
18:25	57.2	57.2	57.2	75	49.3	0	0	---	0.00	29.592 
18:30	57.0	57.0	57.0	75	49.2	0	0	---	0.00	29.595 
18:35	56.7	56.7	56.7	76	49.2	0	0	---	0.00	29.595 
18:40	56.6	56.6	56.6	77	49.5	0	0	---	0.00	29.595 
18:45	56.3	56.3	56.3	77	49.2	0	0	---	0.00	29.600 
18:50	56.0	56.0	56.0	78	49.2	0	0	---	0.00	29.600 
18:55	55.7	55.7	55.7	79	49.3	0	0	---	0.00	29.600 
19:00	55.4	55.4	55.4	79	49.0	0	0	---	0.00	29.609 
19:05	55.1	55.1	55.1	80	49.0	0	0	---	0.00	29.609 
19:10	54.7	54.7	54.7	81	49.0	0	0	---	0.00	29.609 
19:15	54.4	54.4	54.4	81	48.7	0	0	---	0.00	29.617 
19:20	54.1	54.1	54.1	82	48.7	0	0	---	0.00	29.617 
19:25	53.8	53.8	53.8	83	48.8	0	0	---	0.00	29.617 
19:30	53.5	53.5	53.5	83	48.5	0	0	---	0.00	29.625 
19:35	53.3	53.3	53.3	83	48.3	0	0	---	0.00	29.625 
19:40	53.1	53.1	53.1	84	48.4	0	0	---	0.00	29.625 
19:45	52.9	52.9	52.9	84	48.2	0	0	---	0.00	29.628 
19:50	52.8	52.8	52.8	84	48.1	0	0	---	0.00	29.628 
19:55	52.5	52.5	52.5	84	47.8	0	0	---	0.00	29.628 
20:00	52.3	52.3	52.3	83	47.3	0	0	---	0.00	29.637 
20:05	52.0	52.0	52.0	82	46.7	0	0	---	0.00	29.637 
20:10	51.9	51.9	51.9	81	46.3	0	0	---	0.00	29.637 
20:15	51.9	51.9	51.9	79	45.6	0	0	---	0.00	29.642 
20:20	51.7	51.7	51.7	78	45.1	0	0	---	0.00	29.642 
20:25	51.6	51.6	51.6	77	44.6	0	0	---	0.00	29.642 
20:30	51.4	51.4	51.4	76	44.1	0	0	---	0.00	29.644 
20:35	51.3	51.3	51.3	76	44.0	0	0	---	0.00	29.644 
20:40	51.1	51.1	51.1	76	43.8	0	0	---	0.00	29.644 
20:45	51.0	51.0	51.0	77	44.0	0	0	---	0.00	29.647 
20:50	50.5	50.5	50.5	77	43.6	0	0	---	0.00	29.647 
20:55	50.2	50.2	50.2	79	43.9	0	0	---	0.00	29.647 
21:00	49.9	49.9	49.9	79	43.6	0	0	---	0.00	29.652 
21:05	49.6	49.6	49.6	79	43.4	0	0	---	0.00	29.652 
21:10	49.6	49.6	49.6	79	43.4	0	0	---	0.00	29.652 
21:15	49.5	49.5	49.5	79	43.3	0	0	---	0.00	29.652 
21:20	49.4	49.4	49.4	79	43.2	0	0	---	0.00	29.652 
21:25	49.2	49.2	49.2	79	43.0	0	0	---	0.00	29.652 
21:30	48.9	48.9	48.9	80	43.0	0	0	---	0.00	29.659 
21:35	48.8	48.8	48.8	80	42.9	0	0	---	0.00	29.659 
21:40	48.5	48.5	48.5	81	42.9	0	0	---	0.00	29.659 
21:45	48.2	48.2	48.2	81	42.6	0	0	---	0.00	29.662 
21:50	47.9	47.9	47.9	82	42.7	0	0	---	0.00	29.662 
21:55	47.7	47.7	47.7	83	42.8	0	0	---	0.00	29.662 
22:00	47.6	47.6	47.6	83	42.7	0	0	---	0.00	29.674 
22:05	47.3	47.3	47.3	84	42.7	0	0	---	0.00	29.674 
22:10	47.1	47.1	47.1	84	42.5	0	0	---	0.00	29.674 
22:15	46.8	46.8	46.8	84	42.2	0	0	---	0.00	29.678 
22:20	46.7	46.7	46.7	85	42.4	0	0	---	0.00	29.678 
22:25	46.5	46.5	46.5	85	42.2	0	0	---	0.00	29.678 
22:30	46.4	46.4	46.4	86	42.4	0	0	---	0.00	29.691 
22:35	46.7	46.7	46.7	86	42.7	0	0	---	0.00	29.691 
22:40	47.0	47.0	47.0	85	42.7	0	0	---	0.00	29.691 
22:45	47.3	47.3	47.3	85	43.0	0	0	---	0.00	29.695 
22:50	47.7	47.7	47.7	84	43.1	0	0	---	0.00	29.695 
22:55	48.0	48.0	48.0	84	43.4	0	0	---	0.00	29.695 
23:00	48.3	48.3	48.3	83	43.4	0	0	---	0.00	29.696 
23:05	48.5	48.5	48.5	82	43.3	0	0	---	0.00	29.696 
23:10	48.8	48.8	48.8	81	43.2	0	1	90	0.00	29.696 
23:15	49.1	49.1	49.1	81	43.5	0	1	90	0.00	29.699 
23:20	49.5	49.5	49.5	80	43.6	0	1	90	0.00	29.699 
23:25	49.8	49.8	49.8	79	43.6	0	0	---	0.00	29.699 
23:30	49.9	49.9	49.9	78	43.3	0	1	90	0.00	29.702 
23:35	50.1	50.1	50.1	79	43.8	0	1	90	0.00	29.702 
23:40	50.2	50.2	50.2	78	43.6	0	0	---	0.00	29.702 
23:45	50.2	50.2	50.2	79	43.9	0	1	90	0.00	29.704 
23:50	50.4	50.4	50.4	78	43.8	0	1	90	0.00	29.704 
23:55	50.4	50.4	50.4	79	44.1	0	0	---	0.00	29.704 

CoCoRaHS
IN-AL-39
A2 Web Hosting
Creative Commons License
GoDaddy
search engine by freefind advanced

loaded 2018-11-20 03:50:11 • last modified 2010-11-18 10:43:29
Privacy PolicyDisclaimer
• wx.awcolley.com is powered by PmWiki v.2002016 •
• all content (unless otherwise noted) © 2018 A W Colley